createdAt,value
2022-12-18T00:02:01.831Z,-2.50
2022-12-18T00:04:29.363Z,-2.50
2022-12-18T00:06:58.073Z,-2.60
2022-12-18T00:09:25.407Z,-2.60
2022-12-18T00:11:59.536Z,-2.50
2022-12-18T00:14:27.197Z,-2.60
2022-12-18T00:16:54.338Z,-2.70
2022-12-18T00:19:21.705Z,-2.70
2022-12-18T00:21:48.610Z,-2.70
2022-12-18T00:24:15.464Z,-2.70
2022-12-18T00:26:43.921Z,-2.60
2022-12-18T06:51:51.129Z,-4.70
2022-12-18T09:05:05.241Z,-2.40
2022-12-18T09:07:32.240Z,-2.30
2022-12-18T09:09:59.395Z,-2.20
2022-12-18T09:12:27.751Z,-2.10
2022-12-18T09:14:56.030Z,-2.10
2022-12-18T09:17:24.195Z,-1.90
2022-12-18T09:19:51.695Z,-1.70
2022-12-18T09:22:18.942Z,-1.60
2022-12-18T09:24:46.071Z,-1.50
2022-12-18T09:27:13.240Z,-1.40
2022-12-18T09:29:40.505Z,-1.30
2022-12-18T09:32:07.535Z,-1.20
2022-12-18T09:34:34.676Z,-1.10
2022-12-18T09:37:01.580Z,-1.00
2022-12-18T09:39:28.830Z,-0.90
2022-12-18T09:42:00.110Z,-0.70
2022-12-18T09:44:45.195Z,-0.80
2022-12-18T09:47:23.578Z,-0.60
2022-12-18T09:50:03.516Z,-0.60
2022-12-18T09:52:33.621Z,-0.50
2022-12-18T09:55:11.217Z,-0.40
2022-12-18T09:57:43.578Z,-0.30
2022-12-18T10:00:23.367Z,-0.30
2022-12-18T10:02:54.636Z,-0.20
2022-12-18T10:05:49.172Z,-0.10
2022-12-18T10:08:50.269Z,0.00
2022-12-18T10:11:43.342Z,0.10
2022-12-18T10:14:23.767Z,0.30
2022-12-18T10:17:05.890Z,0.40
2022-12-18T10:19:57.096Z,0.40
2022-12-18T10:22:41.060Z,0.40
2022-12-18T10:25:22.404Z,0.40
2022-12-18T10:28:01.398Z,0.40
2022-12-18T10:30:29.275Z,0.50
2022-12-18T10:33:03.128Z,0.50
2022-12-18T10:35:31.012Z,0.40
2022-12-18T10:41:23.092Z,0.40
2022-12-18T10:50:05.228Z,0.60
2022-12-18T10:52:32.437Z,0.60
2022-12-18T10:55:04.195Z,0.60
2022-12-18T10:57:39.981Z,0.60
2022-12-18T11:00:29.056Z,0.70
2022-12-18T11:02:57.149Z,0.70
2022-12-18T11:05:24.887Z,0.80
2022-12-18T11:07:55.795Z,0.80
2022-12-18T11:10:35.014Z,0.90
2022-12-18T11:13:21.065Z,1.00
2022-12-18T11:15:50.387Z,1.10
2022-12-18T11:18:29.146Z,1.20
2022-12-18T11:21:06.477Z,1.30
2022-12-18T11:23:34.839Z,1.40
2022-12-18T11:26:07.136Z,1.40
2022-12-18T11:28:53.347Z,1.60
2022-12-18T11:31:27.068Z,1.70
2022-12-18T11:36:49.599Z,1.80
2022-12-18T11:39:19.887Z,1.80
2022-12-18T11:42:13.256Z,1.90
2022-12-18T11:44:59.517Z,2.00
2022-12-18T11:47:38.637Z,2.20
2022-12-18T11:50:15.732Z,2.20
2022-12-18T11:52:44.889Z,2.30
2022-12-18T11:55:18.520Z,2.40
2022-12-18T11:57:58.563Z,2.30
2022-12-18T12:00:26.075Z,2.40
2022-12-18T12:03:09.407Z,2.30
2022-12-18T12:06:33.200Z,2.30
2022-12-18T12:09:52.687Z,2.40
2022-12-18T12:12:20.128Z,2.50
2022-12-18T12:15:16.534Z,2.50
2022-12-18T12:18:11.256Z,2.50
2022-12-18T12:20:54.799Z,2.50
2022-12-18T12:23:39.907Z,2.60
2022-12-18T12:26:24.089Z,2.60
2022-12-18T12:29:14.357Z,2.70
2022-12-18T12:31:48.013Z,2.70
2022-12-18T12:34:28.548Z,2.80
2022-12-18T12:37:30.673Z,2.90
2022-12-18T12:39:58.244Z,2.90
2022-12-18T12:43:06.129Z,2.90
2022-12-18T12:46:04.844Z,2.90
2022-12-18T12:48:44.282Z,3.00
2022-12-18T12:51:19.858Z,3.10
2022-12-18T12:53:48.140Z,3.10
2022-12-18T12:56:19.567Z,3.10
2022-12-18T12:59:20.585Z,3.10
2022-12-18T13:02:16.956Z,3.20
2022-12-18T13:04:59.087Z,3.30
2022-12-18T13:07:43.183Z,3.40
2022-12-18T13:13:13.341Z,3.40
2022-12-18T13:13:45.035Z,3.40
2022-12-18T13:15:49.676Z,3.50
2022-12-18T13:18:18.774Z,3.60
2022-12-18T13:21:01.360Z,3.60
2022-12-18T13:26:21.926Z,3.60
2022-12-18T13:28:55.731Z,3.60
2022-12-18T13:31:40.923Z,3.60
2022-12-18T13:34:27.610Z,3.60
2022-12-18T13:37:16.784Z,3.60
2022-12-18T13:39:44.453Z,3.60
2022-12-18T13:42:31.705Z,3.50
2022-12-18T13:44:59.517Z,3.60
2022-12-18T13:47:45.694Z,3.60
2022-12-18T13:50:36.023Z,3.60
2022-12-18T13:53:06.276Z,3.50
2022-12-18T13:55:33.621Z,3.50
2022-12-18T13:58:07.522Z,3.50
2022-12-18T14:00:36.533Z,3.50
2022-12-18T14:03:21.831Z,3.50
2022-12-18T14:06:01.243Z,3.50
2022-12-18T14:08:35.352Z,3.50
2022-12-18T14:11:04.913Z,3.50
2022-12-18T14:13:36.374Z,3.40
2022-12-18T14:16:06.243Z,3.50
2022-12-18T14:18:44.961Z,3.40
2022-12-18T14:21:25.103Z,3.50
2022-12-18T14:24:22.900Z,3.60
2022-12-18T14:26:51.611Z,3.60
2022-12-18T14:29:29.932Z,3.40
2022-12-18T14:32:25.973Z,3.50
2022-12-18T14:34:57.127Z,3.40
2022-12-18T14:37:26.782Z,3.40
2022-12-18T14:40:11.082Z,3.40
2022-12-18T14:42:39.711Z,3.30
2022-12-18T14:45:40.984Z,3.30
2022-12-18T14:48:23.675Z,3.20
2022-12-18T14:51:08.665Z,3.20
2022-12-18T14:53:43.670Z,3.20
2022-12-18T14:56:32.147Z,3.20
2022-12-18T14:59:00.847Z,3.20
2022-12-18T15:01:31.567Z,3.10
2022-12-18T15:04:00.719Z,3.10
2022-12-18T15:06:38.973Z,3.10
2022-12-18T15:09:24.096Z,3.10
2022-12-18T15:11:58.772Z,3.20
2022-12-18T15:14:36.310Z,3.10
2022-12-18T15:17:07.536Z,3.10
2022-12-18T15:19:41.632Z,3.10
2022-12-18T15:22:25.390Z,3.10
2022-12-18T15:24:52.895Z,3.10
2022-12-18T15:27:22.765Z,3.00
2022-12-18T15:30:19.390Z,3.10
2022-12-18T15:32:47.449Z,3.00
2022-12-18T15:35:23.329Z,3.00
2022-12-18T15:37:52.061Z,2.90
2022-12-18T15:40:21.911Z,2.90
2022-12-18T15:43:08.261Z,2.90
2022-12-18T15:45:35.178Z,2.80
2022-12-18T15:48:25.327Z,2.80
2022-12-18T15:50:54.834Z,2.80
2022-12-18T15:53:22.181Z,2.80
2022-12-18T15:56:07.905Z,2.70
2022-12-18T15:58:35.637Z,2.80
2022-12-18T16:01:02.881Z,2.60
2022-12-18T16:03:30.290Z,2.70
2022-12-18T16:05:59.964Z,2.60
2022-12-18T16:08:27.586Z,2.70
2022-12-18T16:10:55.731Z,2.70
2022-12-18T16:13:22.870Z,2.70
2022-12-18T16:15:49.971Z,2.70
2022-12-18T16:18:17.198Z,2.80
2022-12-18T16:20:44.104Z,2.90
2022-12-18T16:23:11.223Z,2.90
2022-12-18T16:25:38.595Z,2.80
2022-12-18T16:28:06.327Z,2.90
2022-12-18T16:30:38.144Z,3.00
2022-12-18T16:33:07.594Z,2.90
2022-12-18T16:35:35.009Z,2.80
2022-12-18T16:38:01.989Z,2.80
2022-12-18T16:40:29.197Z,2.70
2022-12-18T16:42:59.183Z,2.70
2022-12-18T16:45:26.539Z,2.80
2022-12-18T16:47:53.446Z,2.70
2022-12-18T16:50:20.431Z,3.00
2022-12-18T16:52:47.695Z,2.90
2022-12-18T16:59:26.803Z,3.00
2022-12-18T17:01:54.036Z,3.00
2022-12-18T17:04:21.051Z,2.90
2022-12-18T17:15:27.216Z,3.00
2022-12-18T17:17:54.380Z,3.10
2022-12-18T17:20:23.437Z,3.00
2022-12-18T17:28:12.204Z,3.30
2022-12-18T17:30:39.437Z,3.30
2022-12-18T17:33:07.287Z,3.20
2022-12-18T17:35:34.706Z,3.40
2022-12-18T17:38:01.754Z,3.40
2022-12-18T17:40:28.702Z,3.30
2022-12-18T17:42:56.187Z,3.10
2022-12-18T17:45:23.117Z,3.20
2022-12-18T17:47:51.565Z,3.20
2022-12-18T17:50:21.323Z,3.10
2022-12-18T17:52:48.407Z,3.10
2022-12-18T17:55:15.592Z,3.10
2022-12-18T17:57:42.996Z,3.10
2022-12-18T18:00:11.424Z,3.10
2022-12-18T18:02:38.923Z,3.20
2022-12-18T18:05:06.688Z,3.20
2022-12-18T18:07:34.746Z,3.40
2022-12-18T18:10:01.763Z,3.40
2022-12-18T18:12:47.919Z,3.30
2022-12-18T18:15:14.944Z,3.40
2022-12-18T18:17:42.054Z,3.30
2022-12-18T18:20:09.992Z,3.40
2022-12-18T18:22:37.232Z,3.40
2022-12-18T18:25:04.674Z,3.40
2022-12-18T18:27:36.950Z,3.50
2022-12-18T18:30:06.482Z,3.50
2022-12-18T18:32:33.566Z,3.60
2022-12-18T18:35:00.912Z,3.50
2022-12-18T18:37:27.861Z,3.40
2022-12-18T18:39:57.147Z,3.40
2022-12-18T18:42:24.125Z,3.50
2022-12-18T18:44:51.465Z,3.40
2022-12-18T18:47:18.645Z,3.50
2022-12-18T18:49:46.097Z,3.40
2022-12-18T18:52:13.068Z,3.40
2022-12-18T18:54:57.087Z,3.50
2022-12-18T18:57:30.288Z,3.40
2022-12-18T18:59:57.770Z,3.50
2022-12-18T19:02:24.816Z,3.50
2022-12-18T19:04:53.932Z,3.60
2022-12-18T19:07:30.647Z,3.40
2022-12-18T19:10:03.997Z,3.40
2022-12-18T19:12:51.316Z,3.60
2022-12-18T19:15:19.897Z,3.50
2022-12-18T19:17:47.560Z,3.40
2022-12-18T19:20:15.618Z,3.50
2022-12-18T19:22:42.925Z,3.40
2022-12-18T19:25:10.775Z,3.40
2022-12-18T19:27:40.109Z,3.40
2022-12-18T19:30:07.929Z,3.60
2022-12-18T19:32:35.088Z,3.50
2022-12-18T19:35:02.712Z,3.60
2022-12-18T19:37:30.138Z,3.60
2022-12-18T19:39:57.428Z,3.60
2022-12-18T19:42:29.268Z,3.50
2022-12-18T19:45:00.669Z,3.50
2022-12-18T19:47:28.489Z,3.50
2022-12-18T19:49:56.130Z,3.60
2022-12-18T19:52:23.482Z,3.60
2022-12-18T19:54:50.589Z,3.70
2022-12-18T19:57:17.538Z,3.70
2022-12-18T19:59:44.596Z,3.60
2022-12-18T20:02:14.544Z,3.60
2022-12-18T20:04:41.766Z,3.60
2022-12-18T20:07:09.802Z,3.50
2022-12-18T20:09:37.186Z,3.50
2022-12-18T20:12:04.911Z,3.50
2022-12-18T20:14:32.085Z,3.50
2022-12-18T20:17:00.354Z,3.50
2022-12-18T20:19:27.883Z,3.40
2022-12-18T20:21:55.845Z,3.40
2022-12-18T20:24:22.973Z,3.40
2022-12-18T20:26:50.107Z,3.40
2022-12-18T20:29:17.403Z,3.50
2022-12-18T20:31:44.390Z,3.50
2022-12-18T20:34:11.346Z,3.50
2022-12-18T20:36:40.993Z,3.60
2022-12-18T20:39:10.835Z,3.60
2022-12-18T20:41:39.215Z,3.50
2022-12-18T20:44:10.966Z,3.50
2022-12-18T20:46:51.995Z,3.50
2022-12-18T20:49:19.708Z,3.60
2022-12-18T20:51:51.379Z,3.70
2022-12-18T20:54:18.832Z,3.70
2022-12-18T20:56:45.922Z,3.60
2022-12-18T20:59:13.199Z,3.50
2022-12-18T21:01:45.281Z,3.50
2022-12-18T21:04:16.382Z,3.50
2022-12-18T21:06:50.795Z,3.40
2022-12-18T21:09:20.688Z,3.40
2022-12-18T21:12:06.507Z,3.30
2022-12-18T21:14:33.612Z,3.30
2022-12-18T21:17:02.387Z,3.30
2022-12-18T21:19:30.212Z,3.40
2022-12-18T21:21:58.143Z,3.50
2022-12-18T21:24:27.065Z,3.60
2022-12-18T21:26:57.051Z,3.50
2022-12-18T21:29:26.917Z,3.50
2022-12-18T21:31:54.888Z,3.60
2022-12-18T21:34:27.827Z,3.50
2022-12-18T21:36:57.273Z,3.50
2022-12-18T21:39:25.271Z,3.60
2022-12-18T21:42:13.438Z,3.70
2022-12-18T21:44:42.538Z,3.70
2022-12-18T21:47:21.552Z,3.70
2022-12-18T21:49:50.450Z,3.70
2022-12-18T21:52:18.114Z,3.70
2022-12-18T21:54:45.342Z,3.80
2022-12-18T21:57:14.344Z,3.80
2022-12-18T21:59:43.738Z,3.80
2022-12-18T22:02:20.122Z,3.80
2022-12-18T22:04:47.573Z,3.80
2022-12-18T22:07:17.060Z,3.80
2022-12-18T22:09:44.508Z,3.80
2022-12-18T22:12:13.674Z,3.90
2022-12-18T22:14:41.131Z,4.00
2022-12-18T22:17:09.774Z,3.90
2022-12-18T22:19:42.719Z,4.00
2022-12-18T22:22:10.119Z,4.10
2022-12-18T22:24:37.145Z,4.10
2022-12-18T22:27:04.353Z,4.20
2022-12-18T22:29:49.898Z,4.30
2022-12-18T22:32:25.579Z,4.40
2022-12-18T22:35:05.906Z,4.40
2022-12-18T22:37:35.271Z,4.30
2022-12-18T22:40:04.837Z,4.30
2022-12-18T22:42:33.078Z,4.40
2022-12-18T22:45:00.442Z,4.40
2022-12-18T22:47:30.110Z,4.30
2022-12-18T22:49:58.338Z,4.40
2022-12-18T22:52:25.694Z,4.40
2022-12-18T22:54:54.220Z,4.60
2022-12-18T22:57:22.744Z,4.60
2022-12-18T22:59:52.419Z,4.60
2022-12-18T23:02:20.049Z,4.60
2022-12-18T23:04:47.747Z,4.60
2022-12-18T23:07:17.242Z,4.50
2022-12-18T23:09:44.887Z,4.50
2022-12-18T23:12:15.899Z,4.50
2022-12-18T23:14:44.750Z,4.70
2022-12-18T23:17:12.060Z,4.80
2022-12-18T23:19:42.800Z,4.80
2022-12-18T23:22:12.852Z,4.90
2022-12-18T23:24:39.950Z,4.90
2022-12-18T23:27:11.580Z,5.00
2022-12-18T23:29:40.070Z,5.20
2022-12-18T23:32:07.884Z,5.30
2022-12-18T23:34:35.475Z,5.30
2022-12-18T23:37:03.865Z,5.30
2022-12-18T23:39:31.388Z,5.20
2022-12-18T23:41:59.339Z,5.30
2022-12-18T23:44:26.478Z,5.20
2022-12-18T23:46:53.800Z,5.30
2022-12-18T23:49:20.960Z,5.20
2022-12-18T23:51:48.467Z,5.20
2022-12-18T23:54:15.694Z,5.30
2022-12-18T23:56:44.210Z,5.30
2022-12-18T23:59:11.209Z,5.30
